Time;durP1;ratioP1;P1;durP2;ratioP2;P2;SDS_P1;SDS_P2;PMS_P1;PMS_P2;Temp;Humidity;BMP_temperature;BMP_pressure;BME280_temperature;BME280_humidity;BME280_pressure;Samples;Min_cycle;Max_cycle;Signal;HPM_P1;HPM_P2
2023/07/14 00:01:39;;;;;;;;;10.00;10.00;;;;;;;;5071633;28;8789;-72
2023/07/14 00:04:09;;;;;;;;;11.50;11.50;;;;;;;;5072171;28;8827;-72
2023/07/14 00:06:34;;;;;;;;;9.50;8.00;;;;;;;;5072670;28;8808;-71
2023/07/14 00:09:00;;;;;;;;;12.50;9.50;;;;;;;;5070868;28;10384;-71
2023/07/14 00:11:25;;;;;;;;;9.00;9.00;;;;;;;;5071838;28;8863;-72
2023/07/14 00:13:51;;;;;;;;;10.00;10.00;;;;;;;;5072149;28;8846;-71
2023/07/14 00:16:25;;;;;;;;;13.50;12.50;;;;;;;;5071627;28;8926;-71
2023/07/14 00:18:51;;;;;;;;;9.50;9.50;;;;;;;;5070679;28;8811;-71
2023/07/14 00:21:22;;;;;;;;;10.75;10.75;;;;;;;;5072417;28;10252;-72
2023/07/14 00:23:47;;;;;;;;;10.75;10.25;;;;;;;;5072106;28;8796;-71
2023/07/14 00:26:14;;;;;;;;;12.50;11.50;;;;;;;;5071626;28;10228;-71
2023/07/14 00:28:39;;;;;;;;;15.50;12.75;;;;;;;;5071397;28;8785;-71
2023/07/14 00:31:09;;;;;;;;;12.00;11.25;;;;;;;;5073786;28;10189;-70
2023/07/14 00:33:34;;;;;;;;;11.25;9.25;;;;;;;;5071499;28;8776;-72
2023/07/14 00:36:00;;;;;;;;;15.25;15.25;;;;;;;;5070321;28;10175;-72
2023/07/14 00:38:25;;;;;;;;;8.00;8.00;;;;;;;;5071748;28;8792;-71
2023/07/14 00:40:50;;;;;;;;;18.25;15.00;;;;;;;;5069695;28;8835;-70
2023/07/14 00:43:21;;;;;;;;;11.50;11.50;;;;;;;;5071653;28;8772;-71
2023/07/14 00:45:48;;;;;;;;;13.25;12.25;;;;;;;;5071496;28;8780;-71
2023/07/14 00:48:19;;;;;;;;;14.00;10.75;;;;;;;;5071274;28;10423;-71
2023/07/14 00:50:48;;;;;;;;;16.00;14.00;;;;;;;;5071515;28;10338;-71
2023/07/14 00:53:23;;;;;;;;;15.50;12.50;;;;;;;;5071035;28;10274;-71
2023/07/14 00:55:52;;;;;;;;;16.25;13.00;;;;;;;;5071143;28;10523;-71
2023/07/14 00:58:23;;;;;;;;;17.75;16.50;;;;;;;;5071628;28;10429;-71
2023/07/14 01:01:05;;;;;;;;;14.50;13.50;;;;;;;;5070826;28;10347;-71
2023/07/14 01:03:30;;;;;;;;;12.25;12.25;;;;;;;;5070994;28;10295;-71
2023/07/14 01:05:57;;;;;;;;;11.50;11.25;;;;;;;;5070715;28;10537;-71
2023/07/14 01:08:23;;;;;;;;;17.50;14.00;;;;;;;;5070690;28;9642;-72
2023/07/14 01:10:49;;;;;;;;;15.25;13.75;;;;;;;;5071163;28;10425;-71
2023/07/14 01:13:15;;;;;;;;;15.50;15.50;;;;;;;;5070831;28;10510;-71
2023/07/14 01:15:41;;;;;;;;;14.25;13.50;;;;;;;;5070851;28;8780;-71
2023/07/14 01:18:07;;;;;;;;;17.50;14.50;;;;;;;;5071345;28;10296;-71
2023/07/14 01:20:35;;;;;;;;;13.00;11.50;;;;;;;;5070459;28;10363;-71
2023/07/14 01:23:00;;;;;;;;;9.25;9.25;;;;;;;;5070826;28;10400;-71
2023/07/14 01:25:29;;;;;;;;;14.00;12.00;;;;;;;;5070499;28;10463;-72
2023/07/14 01:27:54;;;;;;;;;10.50;10.50;;;;;;;;5071086;28;8941;-72
2023/07/14 01:30:20;;;;;;;;;15.75;15.25;;;;;;;;5070524;28;10423;-71
2023/07/14 01:32:46;;;;;;;;;13.25;13.25;;;;;;;;5070112;28;8817;-71
2023/07/14 01:35:12;;;;;;;;;12.25;12.25;;;;;;;;5069503;28;8889;-70
2023/07/14 01:37:39;;;;;;;;;12.75;12.75;;;;;;;;5070439;28;10446;-71
2023/07/14 01:40:08;;;;;;;;;13.25;12.75;;;;;;;;5070427;28;10256;-71
2023/07/14 01:42:33;;;;;;;;;15.00;11.75;;;;;;;;5069627;28;10511;-71
2023/07/14 01:44:59;;;;;;;;;12.25;10.00;;;;;;;;5070189;28;11156;-72
2023/07/14 01:47:24;;;;;;;;;10.25;8.75;;;;;;;;5069920;28;8808;-72
2023/07/14 01:49:51;;;;;;;;;13.50;13.50;;;;;;;;5069482;28;8804;-72
2023/07/14 01:52:25;;;;;;;;;17.25;12.75;;;;;;;;5068391;28;8791;-71
2023/07/14 01:54:53;;;;;;;;;14.75;12.50;;;;;;;;5064073;28;10290;-71
2023/07/14 01:57:20;;;;;;;;;14.50;13.50;;;;;;;;5070963;28;10425;-72
2023/07/14 01:59:48;;;;;;;;;9.25;9.25;;;;;;;;5069765;28;10442;-72
2023/07/14 02:02:16;;;;;;;;;11.75;11.75;;;;;;;;5070189;28;10275;-72
2023/07/14 02:04:42;;;;;;;;;7.25;7.25;;;;;;;;5070286;28;10514;-72
2023/07/14 02:07:12;;;;;;;;;11.50;10.25;;;;;;;;5069999;28;10474;-71
2023/07/14 02:09:37;;;;;;;;;10.25;8.00;;;;;;;;5070417;28;8796;-71
2023/07/14 02:12:04;;;;;;;;;10.75;9.50;;;;;;;;5070039;28;10142;-72
2023/07/14 02:14:34;;;;;;;;;5.50;5.50;;;;;;;;5070281;28;8776;-72
2023/07/14 02:17:03;;;;;;;;;11.50;10.00;;;;;;;;5069543;28;10342;-72
2023/07/14 02:19:29;;;;;;;;;12.00;9.75;;;;;;;;5069391;28;10370;-72
2023/07/14 02:21:54;;;;;;;;;7.50;7.00;;;;;;;;5069922;28;10314;-72
2023/07/14 02:24:22;;;;;;;;;9.25;8.00;;;;;;;;5069057;28;8838;-72
2023/07/14 02:26:51;;;;;;;;;11.25;9.75;;;;;;;;5069506;28;8818;-72
2023/07/14 02:29:16;;;;;;;;;8.25;7.25;;;;;;;;5069918;28;10194;-72
2023/07/14 02:31:44;;;;;;;;;8.50;7.75;;;;;;;;5070054;28;10378;-72
2023/07/14 02:34:10;;;;;;;;;9.50;8.50;;;;;;;;5070124;28;8757;-71
2023/07/14 02:36:53;;;;;;;;;11.50;10.50;;;;;;;;5070170;28;10294;-70
2023/07/14 02:39:19;;;;;;;;;10.00;9.25;;;;;;;;5070785;28;10408;-71
2023/07/14 02:41:44;;;;;;;;;9.75;9.75;;;;;;;;5070933;28;10291;-71
2023/07/14 02:44:12;;;;;;;;;13.00;11.75;;;;;;;;5070258;28;8792;-72
2023/07/14 02:46:41;;;;;;;;;9.75;9.75;;;;;;;;5070474;28;8834;-71
2023/07/14 02:49:07;;;;;;;;;13.50;10.50;;;;;;;;5070571;28;10262;-71
2023/07/14 02:51:32;;;;;;;;;11.25;8.75;;;;;;;;5070743;28;10412;-71
2023/07/14 02:53:57;;;;;;;;;17.00;14.00;;;;;;;;5069454;28;8835;-70
2023/07/14 02:56:22;;;;;;;;;12.50;10.50;;;;;;;;5069527;28;8796;-71
2023/07/14 02:58:49;;;;;;;;;14.00;13.00;;;;;;;;5069767;28;8823;-71
2023/07/14 03:01:15;;;;;;;;;20.00;15.25;;;;;;;;5070961;28;8769;-71
2023/07/14 03:03:41;;;;;;;;;11.50;11.50;;;;;;;;5069387;28;10116;-71
2023/07/14 03:06:09;;;;;;;;;13.25;13.25;;;;;;;;5070454;28;10143;-71
2023/07/14 03:08:34;;;;;;;;;10.75;10.75;;;;;;;;5070646;28;8790;-71
2023/07/14 03:11:00;;;;;;;;;14.00;13.00;;;;;;;;5070863;28;10112;-71
2023/07/14 03:13:26;;;;;;;;;13.00;10.25;;;;;;;;5069448;28;8827;-70
2023/07/14 03:15:51;;;;;;;;;12.50;9.75;;;;;;;;5070587;28;8784;-71
2023/07/14 03:18:16;;;;;;;;;10.50;8.75;;;;;;;;5070575;28;11581;-70
2023/07/14 03:20:42;;;;;;;;;7.25;7.25;;;;;;;;5070528;28;8792;-70
2023/07/14 03:23:08;;;;;;;;;9.75;8.75;;;;;;;;5070679;28;8788;-70
2023/07/14 03:25:33;;;;;;;;;10.50;9.50;;;;;;;;5070272;28;8780;-71
2023/07/14 03:28:01;;;;;;;;;10.75;9.00;;;;;;;;5069992;28;8816;-71
2023/07/14 03:30:26;;;;;;;;;7.50;7.00;;;;;;;;5070860;28;8761;-70
2023/07/14 03:32:51;;;;;;;;;10.25;8.75;;;;;;;;5070057;28;10215;-71
2023/07/14 03:35:18;;;;;;;;;9.25;7.50;;;;;;;;5070281;28;8823;-71
2023/07/14 03:37:44;;;;;;;;;10.50;8.25;;;;;;;;5070214;28;8780;-71
2023/07/14 03:40:09;;;;;;;;;8.25;8.25;;;;;;;;5069617;28;10203;-70
2023/07/14 03:42:35;;;;;;;;;11.50;11.25;;;;;;;;5070364;28;8899;-71
2023/07/14 03:45:00;;;;;;;;;8.75;7.75;;;;;;;;5070195;28;8772;-70
2023/07/14 03:47:26;;;;;;;;;9.00;8.25;;;;;;;;5069804;28;8931;-71
2023/07/14 03:49:51;;;;;;;;;8.75;7.50;;;;;;;;5070001;28;8784;-71
2023/07/14 03:52:17;;;;;;;;;11.00;9.50;;;;;;;;5070148;28;8886;-70
2023/07/14 03:54:42;;;;;;;;;9.75;8.75;;;;;;;;5070381;28;8792;-70
2023/07/14 03:57:07;;;;;;;;;10.50;10.50;;;;;;;;5068779;28;8800;-71
2023/07/14 03:59:34;;;;;;;;;11.00;8.25;;;;;;;;5070001;28;8788;-71
2023/07/14 04:01:59;;;;;;;;;8.25;8.25;;;;;;;;5069821;28;8835;-71
2023/07/14 04:04:24;;;;;;;;;9.75;8.00;;;;;;;;5071226;28;10197;-71
2023/07/14 04:06:49;;;;;;;;;7.25;7.25;;;;;;;;5073349;28;8929;-71
2023/07/14 04:09:15;;;;;;;;;9.25;7.50;;;;;;;;5073067;28;8882;-71
2023/07/14 04:11:40;;;;;;;;;6.75;6.75;;;;;;;;5072961;28;8862;-71
2023/07/14 04:14:06;;;;;;;;;10.75;9.25;;;;;;;;5073020;28;8784;-70
2023/07/14 04:16:31;;;;;;;;;9.50;8.50;;;;;;;;5073361;28;8816;-71
2023/07/14 04:18:57;;;;;;;;;15.00;10.25;;;;;;;;5072947;28;8777;-71
2023/07/14 04:21:27;;;;;;;;;10.25;8.50;;;;;;;;5073313;28;8804;-71
2023/07/14 04:23:52;;;;;;;;;10.50;9.50;;;;;;;;5072837;28;8792;-71
2023/07/14 04:26:18;;;;;;;;;9.50;8.50;;;;;;;;5073065;28;10180;-71
2023/07/14 04:28:43;;;;;;;;;11.75;10.50;;;;;;;;5073254;28;8788;-71
2023/07/14 04:31:09;;;;;;;;;10.25;8.75;;;;;;;;5072993;28;8804;-71
2023/07/14 04:33:34;;;;;;;;;9.00;9.00;;;;;;;;5072883;28;8786;-71
2023/07/14 04:35:59;;;;;;;;;10.75;8.75;;;;;;;;5071653;28;8784;-71
2023/07/14 04:38:25;;;;;;;;;7.50;7.50;;;;;;;;5072713;28;8816;-71
2023/07/14 04:40:50;;;;;;;;;8.00;8.00;;;;;;;;5073016;28;8815;-71
2023/07/14 04:43:16;;;;;;;;;10.75;9.50;;;;;;;;5072913;28;8804;-70
2023/07/14 04:45:42;;;;;;;;;10.50;9.00;;;;;;;;5071695;28;8785;-71
2023/07/14 04:48:08;;;;;;;;;8.25;8.25;;;;;;;;5072833;28;8800;-71
2023/07/14 04:50:34;;;;;;;;;12.25;10.50;;;;;;;;5072705;28;10171;-71
2023/07/14 04:53:00;;;;;;;;;10.50;10.00;;;;;;;;5072439;28;10134;-70
2023/07/14 04:55:26;;;;;;;;;9.50;9.50;;;;;;;;5072734;28;11669;-70
2023/07/14 04:57:51;;;;;;;;;10.25;10.25;;;;;;;;5072868;28;8797;-71
2023/07/14 05:00:20;;;;;;;;;10.75;10.00;;;;;;;;5072449;28;10223;-71
2023/07/14 05:02:45;;;;;;;;;9.25;9.25;;;;;;;;5072184;28;8812;-70
2023/07/14 05:05:10;;;;;;;;;7.00;7.00;;;;;;;;5072743;28;10274;-72
2023/07/14 05:07:35;;;;;;;;;11.50;11.50;;;;;;;;5072104;28;8804;-71
2023/07/14 05:10:01;;;;;;;;;8.25;8.25;;;;;;;;5072307;28;8804;-71
2023/07/14 05:12:26;;;;;;;;;10.25;9.50;;;;;;;;5072375;28;8823;-71
2023/07/14 05:14:51;;;;;;;;;11.50;9.00;;;;;;;;5072586;28;8776;-71
2023/07/14 05:17:17;;;;;;;;;11.00;9.00;;;;;;;;5071510;28;8804;-71
2023/07/14 05:19:42;;;;;;;;;4.75;4.75;;;;;;;;5071344;28;8803;-71
2023/07/14 05:22:07;;;;;;;;;4.75;4.75;;;;;;;;5071073;28;8801;-70
2023/07/14 05:24:32;;;;;;;;;5.00;3.50;;;;;;;;5070905;28;8797;-70
2023/07/14 05:26:59;;;;;;;;;3.50;2.75;;;;;;;;5072409;28;8836;-70
2023/07/14 05:29:24;;;;;;;;;3.75;3.50;;;;;;;;5072146;28;8847;-71
2023/07/14 05:31:50;;;;;;;;;5.50;3.00;;;;;;;;5072125;28;9956;-71
2023/07/14 05:34:15;;;;;;;;;5.50;4.00;;;;;;;;5072150;28;8819;-71
2023/07/14 05:36:40;;;;;;;;;4.75;3.00;;;;;;;;5070620;28;8816;-71
2023/07/14 05:39:06;;;;;;;;;4.50;3.00;;;;;;;;5072320;28;8804;-70
2023/07/14 05:41:31;;;;;;;;;2.00;2.00;;;;;;;;5071815;28;8870;-71
2023/07/14 05:43:56;;;;;;;;;4.00;2.25;;;;;;;;5071808;28;8844;-71
2023/07/14 05:46:21;;;;;;;;;4.25;3.00;;;;;;;;5070730;28;8812;-71
2023/07/14 05:48:47;;;;;;;;;2.00;2.00;;;;;;;;5071976;28;8772;-71
2023/07/14 05:51:13;;;;;;;;;2.25;2.25;;;;;;;;5071620;28;8808;-71
2023/07/14 05:53:38;;;;;;;;;3.50;3.00;;;;;;;;5071923;28;8768;-71
2023/07/14 05:56:04;;;;;;;;;3.25;2.25;;;;;;;;5071705;28;10476;-71
2023/07/14 05:58:29;;;;;;;;;1.00;1.00;;;;;;;;5072050;28;8777;-71
2023/07/14 06:00:54;;;;;;;;;3.00;2.00;;;;;;;;5071849;28;9831;-72
2023/07/14 06:03:20;;;;;;;;;2.00;2.00;;;;;;;;5071271;28;8797;-71
2023/07/14 06:05:48;;;;;;;;;5.25;2.75;;;;;;;;5071513;28;8812;-71
2023/07/14 06:08:14;;;;;;;;;2.50;2.00;;;;;;;;5070288;28;8897;-72
2023/07/14 06:10:39;;;;;;;;;2.50;2.00;;;;;;;;5071572;28;9883;-71
2023/07/14 06:13:04;;;;;;;;;2.25;2.25;;;;;;;;5071578;28;9676;-71
2023/07/14 06:15:30;;;;;;;;;3.00;3.00;;;;;;;;5071576;28;8842;-71
2023/07/14 06:17:55;;;;;;;;;2.00;2.00;;;;;;;;5071396;28;8842;-71
2023/07/14 06:20:20;;;;;;;;;3.00;3.00;;;;;;;;5071682;28;8873;-71
2023/07/14 06:22:45;;;;;;;;;1.00;1.00;;;;;;;;5071570;28;8768;-71
2023/07/14 06:25:11;;;;;;;;;2.00;2.00;;;;;;;;5070114;28;8954;-71
2023/07/14 06:27:36;;;;;;;;;2.00;1.50;;;;;;;;5071135;28;9613;-71
2023/07/14 06:30:02;;;;;;;;;2.00;1.00;;;;;;;;5071417;28;8870;-71
2023/07/14 06:32:27;;;;;;;;;2.00;2.00;;;;;;;;5071239;28;8792;-71
2023/07/14 06:34:56;;;;;;;;;1.25;1.25;;;;;;;;5071091;28;9808;-71
2023/07/14 06:37:21;;;;;;;;;2.00;2.00;;;;;;;;5071178;28;8780;-71
2023/07/14 06:39:46;;;;;;;;;3.25;3.00;;;;;;;;5071285;28;10539;-71
2023/07/14 06:42:12;;;;;;;;;2.00;2.00;;;;;;;;5070974;28;8785;-71
2023/07/14 06:44:37;;;;;;;;;2.00;2.00;;;;;;;;5071044;28;8800;-72
2023/07/14 06:47:02;;;;;;;;;2.75;2.00;;;;;;;;5070991;28;8836;-71
2023/07/14 06:49:27;;;;;;;;;1.75;1.75;;;;;;;;5070827;28;9591;-71
2023/07/14 06:51:53;;;;;;;;;0.00;0.00;;;;;;;;5071144;28;8781;-72
2023/07/14 06:54:18;;;;;;;;;3.00;3.00;;;;;;;;5070910;28;8792;-72
2023/07/14 06:56:43;;;;;;;;;2.00;2.00;;;;;;;;5070698;28;8859;-72
2023/07/14 06:59:08;;;;;;;;;3.00;1.00;;;;;;;;5070913;28;8834;-72
2023/07/14 07:01:34;;;;;;;;;1.50;1.50;;;;;;;;5069508;28;8808;-72
2023/07/14 07:03:59;;;;;;;;;3.00;3.00;;;;;;;;5070475;28;8812;-72
2023/07/14 07:06:24;;;;;;;;;4.00;4.00;;;;;;;;5070864;28;8878;-71
2023/07/14 07:08:50;;;;;;;;;3.75;3.50;;;;;;;;5070643;28;8812;-72
2023/07/14 07:11:15;;;;;;;;;2.75;1.25;;;;;;;;5069363;28;8813;-72
2023/07/14 07:13:40;;;;;;;;;3.00;2.00;;;;;;;;5070767;28;8784;-73
2023/07/14 07:16:06;;;;;;;;;2.50;2.50;;;;;;;;5070712;28;8808;-72
2023/07/14 07:18:31;;;;;;;;;2.75;2.75;;;;;;;;5069677;28;8788;-72
2023/07/14 07:20:56;;;;;;;;;3.00;2.00;;;;;;;;5070506;28;8797;-71
2023/07/14 07:23:21;;;;;;;;;3.00;2.00;;;;;;;;5070841;28;8797;-72
2023/07/14 07:25:51;;;;;;;;;2.50;2.50;;;;;;;;5071147;28;8843;-72
2023/07/14 07:28:17;;;;;;;;;3.75;2.00;;;;;;;;5070804;28;8825;-71
2023/07/14 07:30:42;;;;;;;;;2.25;2.25;;;;;;;;5070058;28;9802;-72
2023/07/14 07:33:09;;;;;;;;;2.00;2.00;;;;;;;;5071100;28;9979;-72
2023/07/14 07:35:36;;;;;;;;;3.00;2.25;;;;;;;;5070412;28;9834;-73
2023/07/14 07:38:02;;;;;;;;;1.25;1.25;;;;;;;;5071392;28;9647;-72
2023/07/14 07:40:27;;;;;;;;;4.50;3.25;;;;;;;;5073260;28;9802;-73
2023/07/14 07:42:54;;;;;;;;;3.25;3.25;;;;;;;;5073906;28;11210;-73
2023/07/14 07:45:19;;;;;;;;;3.00;3.00;;;;;;;;5073685;28;8854;-74
2023/07/14 07:47:45;;;;;;;;;2.00;2.00;;;;;;;;5072450;28;10025;-72
2023/07/14 07:50:10;;;;;;;;;3.25;3.25;;;;;;;;5073879;28;8822;-71
2023/07/14 07:52:35;;;;;;;;;2.25;1.00;;;;;;;;5073751;28;8822;-69
2023/07/14 07:55:01;;;;;;;;;1.75;1.50;;;;;;;;5072639;28;8800;-70
2023/07/14 07:57:26;;;;;;;;;1.25;1.25;;;;;;;;5073617;28;8796;-71
2023/07/14 07:59:51;;;;;;;;;1.50;0.75;;;;;;;;5073787;28;8809;-70
2023/07/14 08:02:16;;;;;;;;;1.75;1.75;;;;;;;;5073306;28;8854;-70
2023/07/14 08:04:41;;;;;;;;;3.00;3.00;;;;;;;;5073219;28;8836;-70
2023/07/14 08:07:10;;;;;;;;;3.00;3.00;;;;;;;;5073528;28;8808;-69
2023/07/14 08:09:35;;;;;;;;;3.00;3.00;;;;;;;;5072078;28;8878;-70
2023/07/14 08:12:02;;;;;;;;;2.75;2.75;;;;;;;;5072022;28;10385;-71
2023/07/14 08:14:28;;;;;;;;;1.25;1.25;;;;;;;;5072062;28;8804;-71
2023/07/14 08:16:53;;;;;;;;;3.00;3.00;;;;;;;;5071837;28;10577;-71
2023/07/14 08:19:18;;;;;;;;;2.75;2.75;;;;;;;;5072984;28;8804;-71
2023/07/14 08:21:43;;;;;;;;;4.00;3.00;;;;;;;;5073368;28;8792;-71
2023/07/14 08:24:09;;;;;;;;;2.00;2.00;;;;;;;;5073445;28;8823;-70
2023/07/14 08:26:35;;;;;;;;;2.00;2.00;;;;;;;;5071645;28;8844;-71
2023/07/14 08:29:00;;;;;;;;;3.50;2.00;;;;;;;;5072937;28;8789;-71
2023/07/14 08:31:26;;;;;;;;;2.25;2.25;;;;;;;;5073009;28;8923;-70
2023/07/14 08:33:51;;;;;;;;;2.00;2.00;;;;;;;;5072642;28;8803;-71
2023/07/14 08:36:17;;;;;;;;;2.00;2.00;;;;;;;;5073027;28;8878;-71
2023/07/14 08:38:42;;;;;;;;;3.00;3.00;;;;;;;;5072889;28;8816;-72
2023/07/14 08:41:23;;;;;;;;;2.00;2.00;;;;;;;;5072797;28;8906;-71
2023/07/14 08:44:03;;;;;;;;;3.00;3.00;;;;;;;;5072896;28;9672;-71
2023/07/14 08:46:49;;;;;;;;;1.75;1.75;;;;;;;;5072385;28;10004;-71
2023/07/14 08:49:17;;;;;;;;;1.75;1.75;;;;;;;;5072042;28;9895;-71
2023/07/14 08:51:46;;;;;;;;;3.00;3.00;;;;;;;;5071703;28;9903;-71
2023/07/14 08:54:16;;;;;;;;;3.25;3.25;;;;;;;;5072790;28;9807;-71
2023/07/14 08:56:41;;;;;;;;;7.50;7.50;;;;;;;;5072958;28;10103;-71
2023/07/14 08:59:11;;;;;;;;;6.75;6.00;;;;;;;;5072499;28;10395;-71
2023/07/14 09:01:50;;;;;;;;;4.50;4.50;;;;;;;;5072227;28;8804;-71
2023/07/14 09:04:20;;;;;;;;;3.00;3.00;;;;;;;;5072818;28;10285;-71
2023/07/14 09:06:46;;;;;;;;;2.50;2.50;;;;;;;;5072489;28;10039;-71
2023/07/14 09:09:16;;;;;;;;;2.75;2.00;;;;;;;;5072358;28;10009;-71
2023/07/14 09:11:45;;;;;;;;;2.75;2.75;;;;;;;;5072491;28;8792;-71
2023/07/14 09:14:37;;;;;;;;;2.00;2.00;;;;;;;;5070925;28;10171;-71
2023/07/14 09:17:09;;;;;;;;;2.00;2.00;;;;;;;;5069457;28;9965;-71
2023/07/14 09:19:40;;;;;;;;;1.75;1.75;;;;;;;;5072312;28;9946;-71
2023/07/14 09:22:05;;;;;;;;;2.50;2.50;;;;;;;;5072287;28;10005;-71
2023/07/14 09:24:39;;;;;;;;;4.25;3.25;;;;;;;;5072343;28;10804;-71
2023/07/14 09:27:08;;;;;;;;;2.25;2.25;;;;;;;;5072436;28;8824;-71
2023/07/14 09:29:36;;;;;;;;;1.50;1.50;;;;;;;;5071951;28;10040;-71
2023/07/14 09:32:20;;;;;;;;;2.25;2.25;;;;;;;;5071955;28;9855;-71
2023/07/14 09:34:59;;;;;;;;;2.50;2.50;;;;;;;;5072001;28;10034;-71
2023/07/14 09:37:32;;;;;;;;;1.00;1.00;;;;;;;;5072233;28;9956;-71
2023/07/14 09:40:17;;;;;;;;;3.50;2.00;;;;;;;;5071902;28;10047;-71
2023/07/14 09:42:44;;;;;;;;;1.75;1.75;;;;;;;;5071936;28;10016;-72
2023/07/14 09:45:30;;;;;;;;;1.25;1.25;;;;;;;;5072032;28;10120;-71
2023/07/14 09:48:05;;;;;;;;;2.50;2.50;;;;;;;;5071311;28;10110;-71
2023/07/14 09:50:32;;;;;;;;;1.00;1.00;;;;;;;;5071854;28;10187;-71
2023/07/14 09:53:02;;;;;;;;;2.50;1.75;;;;;;;;5070381;28;11054;-71
2023/07/14 09:55:27;;;;;;;;;2.25;1.00;;;;;;;;5071624;28;10252;-71
2023/07/14 09:57:54;;;;;;;;;2.25;2.00;;;;;;;;5071417;28;10133;-71
2023/07/14 10:00:27;;;;;;;;;2.00;2.00;;;;;;;;5071657;28;8861;-71
2023/07/14 10:03:01;;;;;;;;;1.75;1.75;;;;;;;;5070765;28;10399;-71
2023/07/14 10:05:43;;;;;;;;;2.00;2.00;;;;;;;;5071743;28;10308;-71
2023/07/14 10:08:28;;;;;;;;;2.00;2.00;;;;;;;;5069793;28;10216;-70
2023/07/14 10:10:55;;;;;;;;;2.00;2.00;;;;;;;;5068985;28;10323;-70
2023/07/14 10:13:22;;;;;;;;;2.00;2.00;;;;;;;;5071013;28;10391;-70
2023/07/14 10:15:53;;;;;;;;;3.00;3.00;;;;;;;;5071578;28;10372;-70
2023/07/14 10:18:19;;;;;;;;;2.25;1.25;;;;;;;;5071255;28;10576;-70
2023/07/14 10:21:13;;;;;;;;;3.00;1.25;;;;;;;;5071444;28;11188;-70
2023/07/14 10:23:38;;;;;;;;;2.25;2.25;;;;;;;;5052850;28;8842;-70
2023/07/14 10:26:05;;;;;;;;;2.00;2.00;;;;;;;;5071433;28;10499;-70
2023/07/14 10:28:33;;;;;;;;;0.25;0.25;;;;;;;;5071070;28;8832;-70
2023/07/14 10:31:04;;;;;;;;;2.00;2.00;;;;;;;;5071143;28;10406;-71
2023/07/14 10:33:38;;;;;;;;;1.25;1.00;;;;;;;;5071379;28;10592;-70
2023/07/14 10:36:17;;;;;;;;;1.00;1.00;;;;;;;;5071066;28;10342;-70
2023/07/14 10:38:46;;;;;;;;;1.25;1.25;;;;;;;;5071192;28;10400;-70
2023/07/14 10:41:11;;;;;;;;;1.00;1.00;;;;;;;;5070917;28;11358;-71
2023/07/14 10:43:44;;;;;;;;;1.50;1.50;;;;;;;;5070711;28;10556;-69
2023/07/14 10:46:13;;;;;;;;;2.50;2.50;;;;;;;;5070873;28;8815;-70
2023/07/14 10:48:41;;;;;;;;;2.00;2.00;;;;;;;;5070810;28;10442;-71
2023/07/14 10:51:22;;;;;;;;;2.00;2.00;;;;;;;;5071176;28;10473;-71
2023/07/14 10:53:55;;;;;;;;;1.75;1.75;;;;;;;;5071016;28;10450;-70
2023/07/14 10:56:29;;;;;;;;;2.00;2.00;;;;;;;;5069380;28;10500;-70
2023/07/14 10:59:00;;;;;;;;;2.00;2.00;;;;;;;;5070854;28;10334;-71
2023/07/14 11:01:40;;;;;;;;;1.00;1.00;;;;;;;;5069188;28;10295;-69
2023/07/14 11:04:28;;;;;;;;;1.25;1.25;;;;;;;;5070886;28;10323;-71
2023/07/14 11:06:55;;;;;;;;;1.00;1.00;;;;;;;;5070581;28;10470;-72
2023/07/14 11:09:20;;;;;;;;;1.00;1.00;;;;;;;;5069240;28;10334;-71
2023/07/14 11:11:49;;;;;;;;;1.00;1.00;;;;;;;;5070402;28;10383;-71
2023/07/14 11:14:34;;;;;;;;;5.25;2.00;;;;;;;;5071451;28;8793;-72
2023/07/14 11:17:20;;;;;;;;;2.25;2.00;;;;;;;;5074258;28;10267;-71
2023/07/14 11:20:08;;;;;;;;;3.50;3.00;;;;;;;;5074333;28;10480;-71
2023/07/14 11:22:34;;;;;;;;;2.00;2.00;;;;;;;;5074067;28;10422;-71
2023/07/14 11:25:20;;;;;;;;;1.75;1.75;;;;;;;;5074118;28;10332;-71
2023/07/14 11:27:50;;;;;;;;;2.00;2.00;;;;;;;;5063821;28;8840;-71
2023/07/14 11:30:21;;;;;;;;;1.00;1.00;;;;;;;;5074076;28;10403;-71
2023/07/14 11:32:51;;;;;;;;;3.75;2.00;;;;;;;;5072961;28;10349;-71
2023/07/14 11:35:24;;;;;;;;;2.00;2.00;;;;;;;;5073729;28;10347;-71
2023/07/14 11:37:50;;;;;;;;;1.25;1.00;;;;;;;;5074104;28;10329;-72
2023/07/14 11:40:20;;;;;;;;;1.00;1.00;;;;;;;;5072457;28;11180;-72
2023/07/14 11:42:49;;;;;;;;;1.75;1.75;;;;;;;;5074014;28;8792;-72
2023/07/14 11:45:16;;;;;;;;;0.75;0.75;;;;;;;;5073755;28;11064;-72
2023/07/14 11:47:42;;;;;;;;;0.00;0.00;;;;;;;;5073489;28;10390;-72
2023/07/14 11:50:31;;;;;;;;;1.50;1.50;;;;;;;;5073742;28;11002;-72
2023/07/14 11:53:01;;;;;;;;;2.00;2.00;;;;;;;;5065492;28;8808;-72
2023/07/14 11:55:30;;;;;;;;;1.25;1.25;;;;;;;;5073439;28;10328;-72
2023/07/14 11:58:34;;;;;;;;;1.25;1.25;;;;;;;;5073692;28;10253;-72
2023/07/14 12:01:03;;;;;;;;;3.00;1.50;;;;;;;;5011392;28;10232;-72
2023/07/14 12:03:30;;;;;;;;;2.25;2.00;;;;;;;;5010141;28;10213;-72
2023/07/14 12:06:14;;;;;;;;;3.25;1.00;;;;;;;;5009569;28;10305;-72
2023/07/14 12:08:41;;;;;;;;;1.25;1.25;;;;;;;;5008590;28;10369;-72
2023/07/14 12:11:22;;;;;;;;;1.00;1.00;;;;;;;;5006463;28;10298;-72
2023/07/14 12:13:50;;;;;;;;;1.50;1.50;;;;;;;;5007552;28;10212;-72
2023/07/14 12:16:24;;;;;;;;;1.50;1.50;;;;;;;;5009645;28;10396;-73
2023/07/14 12:19:00;;;;;;;;;1.00;1.00;;;;;;;;5009688;28;10201;-72
2023/07/14 12:21:54;;;;;;;;;3.00;2.00;;;;;;;;5009464;28;10214;-72
2023/07/14 12:24:22;;;;;;;;;1.25;1.25;;;;;;;;4992906;28;11108;-72
2023/07/14 12:27:10;;;;;;;;;2.00;2.00;;;;;;;;5009359;28;11049;-72
2023/07/14 12:29:35;;;;;;;;;1.75;1.75;;;;;;;;4931776;29;11139;-72
2023/07/14 12:32:02;;;;;;;;;2.75;1.00;;;;;;;;4958312;28;10308;-71
2023/07/14 12:34:30;;;;;;;;;3.25;2.00;;;;;;;;4989576;28;9720;-72
2023/07/14 12:36:55;;;;;;;;;1.00;1.00;;;;;;;;4989889;28;11169;-71
2023/07/14 12:39:20;;;;;;;;;1.00;1.00;;;;;;;;4990050;28;10315;-71
2023/07/14 12:41:48;;;;;;;;;3.00;2.00;;;;;;;;4990190;28;8828;-71
2023/07/14 12:44:22;;;;;;;;;1.00;1.00;;;;;;;;4989875;28;8800;-71
2023/07/14 12:46:48;;;;;;;;;1.00;1.00;;;;;;;;4989390;28;10386;-72
2023/07/14 12:49:32;;;;;;;;;1.25;1.25;;;;;;;;4990091;28;10386;-72
2023/07/14 12:52:03;;;;;;;;;1.00;1.00;;;;;;;;5008806;28;8831;-72
2023/07/14 12:54:28;;;;;;;;;1.00;1.00;;;;;;;;5010285;28;10397;-72
2023/07/14 12:56:54;;;;;;;;;1.00;1.00;;;;;;;;5009943;28;10386;-72
2023/07/14 12:59:19;;;;;;;;;1.00;1.00;;;;;;;;5009686;28;8787;-74
2023/07/14 13:01:45;;;;;;;;;2.50;1.75;;;;;;;;5009298;28;10303;-72
2023/07/14 13:04:11;;;;;;;;;2.00;2.00;;;;;;;;5009174;28;8806;-72
2023/07/14 13:06:37;;;;;;;;;1.50;1.50;;;;;;;;5040090;28;8776;-72
2023/07/14 13:09:10;;;;;;;;;1.25;1.25;;;;;;;;5071477;28;10437;-72
2023/07/14 13:11:37;;;;;;;;;1.50;1.50;;;;;;;;5070222;28;8848;-72
2023/07/14 13:14:02;;;;;;;;;0.00;0.00;;;;;;;;5070375;28;10490;-72
2023/07/14 13:16:34;;;;;;;;;1.50;1.50;;;;;;;;5071341;28;10414;-72
2023/07/14 13:19:00;;;;;;;;;2.00;2.00;;;;;;;;5071345;28;8827;-72
2023/07/14 13:21:42;;;;;;;;;1.00;1.00;;;;;;;;5071112;28;10401;-71
2023/07/14 13:24:08;;;;;;;;;1.00;1.00;;;;;;;;5071147;28;8874;-70
2023/07/14 13:26:46;;;;;;;;;1.00;1.00;;;;;;;;5070620;28;10484;-71
2023/07/14 13:29:15;;;;;;;;;2.00;1.00;;;;;;;;5071033;28;10442;-71
2023/07/14 13:31:40;;;;;;;;;0.75;0.75;;;;;;;;5070991;28;11167;-72
2023/07/14 13:34:22;;;;;;;;;2.00;2.00;;;;;;;;5070938;28;10323;-71
2023/07/14 13:36:49;;;;;;;;;1.50;1.50;;;;;;;;5068624;28;8911;-71
2023/07/14 13:39:26;;;;;;;;;4.00;2.50;;;;;;;;5070366;28;10480;-71
2023/07/14 13:41:54;;;;;;;;;1.00;1.00;;;;;;;;5070606;28;10453;-71
2023/07/14 13:44:36;;;;;;;;;1.00;1.00;;;;;;;;5070890;28;10316;-72
2023/07/14 13:47:11;;;;;;;;;1.25;1.25;;;;;;;;5070630;28;10333;-72
2023/07/14 13:49:36;;;;;;;;;1.00;1.00;;;;;;;;5070415;28;10322;-72
2023/07/14 13:52:02;;;;;;;;;5.00;4.00;;;;;;;;5069792;28;10315;-74
2023/07/14 13:54:38;;;;;;;;;1.00;1.00;;;;;;;;5070922;28;8780;-72
2023/07/14 13:57:03;;;;;;;;;4.25;3.00;;;;;;;;5070679;28;10293;-73
2023/07/14 13:59:29;;;;;;;;;2.00;1.00;;;;;;;;5070523;28;11161;-72
2023/07/14 14:01:54;;;;;;;;;2.00;2.00;;;;;;;;5070314;28;8820;-72
2023/07/14 14:04:19;;;;;;;;;1.00;1.00;;;;;;;;5070034;28;8804;-72
2023/07/14 14:06:44;;;;;;;;;2.00;2.00;;;;;;;;5070007;28;8820;-72
2023/07/14 14:09:22;;;;;;;;;1.00;1.00;;;;;;;;5070659;28;8911;-72
2023/07/14 14:11:50;;;;;;;;;2.00;2.00;;;;;;;;5070215;28;8850;-72
2023/07/14 14:14:16;;;;;;;;;1.00;1.00;;;;;;;;5070308;28;10398;-72
2023/07/14 14:16:41;;;;;;;;;1.00;1.00;;;;;;;;5070421;28;10313;-72
2023/07/14 14:19:09;;;;;;;;;1.00;1.00;;;;;;;;5069670;28;8816;-72
2023/07/14 14:21:35;;;;;;;;;1.00;1.00;;;;;;;;5069317;28;8819;-73
2023/07/14 14:24:00;;;;;;;;;0.75;0.75;;;;;;;;5070285;28;10414;-72
2023/07/14 14:26:25;;;;;;;;;1.00;1.00;;;;;;;;5070030;28;10328;-72
2023/07/14 14:28:50;;;;;;;;;1.00;1.00;;;;;;;;5069973;28;8836;-72
2023/07/14 14:31:15;;;;;;;;;1.75;1.25;;;;;;;;5069593;28;8816;-72
2023/07/14 14:33:41;;;;;;;;;1.00;1.00;;;;;;;;5068766;28;8796;-72
2023/07/14 14:36:08;;;;;;;;;2.25;2.00;;;;;;;;5069801;28;9584;-72
2023/07/14 14:38:34;;;;;;;;;2.25;2.00;;;;;;;;5069976;28;8780;-72
2023/07/14 14:41:00;;;;;;;;;1.00;1.00;;;;;;;;5068760;28;10424;-72
2023/07/14 14:43:30;;;;;;;;;0.00;0.00;;;;;;;;5069778;28;8782;-72
2023/07/14 14:45:59;;;;;;;;;1.00;1.00;;;;;;;;5068721;28;10291;-73
2023/07/14 14:48:24;;;;;;;;;1.00;1.00;;;;;;;;5069432;28;10345;-73
2023/07/14 14:50:51;;;;;;;;;1.00;1.00;;;;;;;;5068132;28;10440;-72
2023/07/14 14:53:18;;;;;;;;;1.00;1.00;;;;;;;;5070099;28;8891;-72